Time;durP1;ratioP1;P1;durP2;ratioP2;P2;SDS_P1;SDS_P2;PMS_P1;PMS_P2;Temp;Humidity;BMP_temperature;BMP_pressure;BME280_temperature;BME280_humidity;BME280_pressure;Samples;Min_cycle;Max_cycle;Signal;HPM_P1;HPM_P2
2021/03/27 00:00:52;;;;;;;68.30;38.20;;;11.30;85.60;;;;;;5015897;28;20065;-75
2021/03/27 00:03:50;;;;;;;63.40;37.67;;;11.30;85.80;;;;;;5049187;28;20547;-74
2021/03/27 00:06:27;;;;;;;59.45;36.53;;;11.20;85.90;;;;;;5033411;28;20412;-74
2021/03/27 00:09:06;;;;;;;56.67;35.90;;;11.20;86.10;;;;;;5048892;28;20029;-74
2021/03/27 00:11:54;;;;;;;57.83;37.08;;;11.20;86.10;;;;;;5035732;28;20431;-75
2021/03/27 00:14:41;;;;;;;61.72;38.15;;;11.20;86.10;;;;;;5041709;28;20025;-75
2021/03/27 00:17:13;;;;;;;63.38;35.85;;;11.10;86.00;;;;;;5040910;28;20405;-75
2021/03/27 00:19:42;;;;;;;55.95;34.40;;;11.10;86.10;;;;;;5039606;28;20328;-76
2021/03/27 00:22:30;;;;;;;59.83;35.58;;;11.10;86.40;;;;;;5032192;28;20390;-75
2021/03/27 00:25:34;;;;;;;62.90;35.60;;;11.00;86.30;;;;;;5015745;28;20128;-75
2021/03/27 00:28:06;;;;;;;57.75;35.45;;;11.00;86.10;;;;;;4958514;28;20454;-72
2021/03/27 00:30:39;;;;;;;57.30;34.72;;;11.00;86.40;;;;;;5024653;28;20495;-73
2021/03/27 00:33:05;;;;;;;51.80;33.25;;;11.00;86.70;;;;;;5033969;28;20446;-72
2021/03/27 00:35:48;;;;;;;61.67;36.72;;;10.90;86.70;;;;;;5033150;28;20084;-72
2021/03/27 00:38:33;;;;;;;51.47;33.38;;;11.00;86.80;;;;;;5033410;28;20581;-71
2021/03/27 00:41:00;;;;;;;52.15;31.63;;;10.90;86.50;;;;;;5040542;28;20037;-72
2021/03/27 00:43:34;;;;;;;51.65;33.78;;;10.90;86.50;;;;;;5033287;28;20498;-72
2021/03/27 00:46:04;;;;;;;57.47;34.10;;;10.90;86.90;;;;;;5032367;28;20018;-71
2021/03/27 00:48:36;;;;;;;52.85;33.10;;;10.90;86.80;;;;;;5033640;28;20521;-71
2021/03/27 00:51:10;;;;;;;54.25;32.92;;;10.90;87.10;;;;;;5015064;28;20025;-72
2021/03/27 00:54:07;;;;;;;58.47;34.75;;;10.90;87.10;;;;;;5032899;28;20612;-72
2021/03/27 00:56:46;;;;;;;56.35;34.25;;;10.90;86.80;;;;;;5013781;28;20480;-71
2021/03/27 00:59:25;;;;;;;57.63;36.33;;;10.80;86.90;;;;;;5033887;28;20559;-72
2021/03/27 01:01:57;;;;;;;59.10;34.13;;;10.90;87.00;;;;;;5010570;28;20034;-71
2021/03/27 01:04:27;;;;;;;59.10;35.70;;;10.80;87.10;;;;;;5013200;28;20034;-71
2021/03/27 01:06:58;;;;;;;53.83;33.80;;;10.80;87.20;;;;;;5019777;28;20179;-72
2021/03/27 01:09:52;;;;;;;53.63;33.00;;;10.80;87.50;;;;;;5033300;28;20034;-72
2021/03/27 01:12:27;;;;;;;53.28;33.03;;;10.80;87.40;;;;;;5026051;28;20040;-73
2021/03/27 01:15:02;;;;;;;53.72;31.98;;;10.80;87.50;;;;;;5053306;28;20029;-72
2021/03/27 01:17:30;;;;;;;52.03;32.08;;;10.80;87.40;;;;;;5036227;28;20038;-72
2021/03/27 01:20:00;;;;;;;52.38;32.00;;;10.80;87.30;;;;;;5032886;28;20040;-72
2021/03/27 01:22:27;;;;;;;53.15;32.22;;;10.90;87.40;;;;;;5042493;28;20135;-71
2021/03/27 01:25:03;;;;;;;54.10;32.22;;;10.80;87.20;;;;;;5043948;28;20033;-71
2021/03/27 01:27:32;;;;;;;52.38;31.38;;;10.80;87.10;;;;;;5042605;28;20130;-72
2021/03/27 01:30:18;;;;;;;53.50;31.83;;;10.80;87.10;;;;;;5043845;28;20196;-71
2021/03/27 01:32:45;;;;;;;51.72;31.83;;;10.90;87.00;;;;;;5044616;28;20119;-71
2021/03/27 01:35:33;;;;;;;53.67;30.70;;;10.80;86.90;;;;;;5042876;28;20113;-71
2021/03/27 01:38:14;;;;;;;52.80;30.42;;;10.80;86.90;;;;;;5036312;28;20116;-71
2021/03/27 01:40:46;;;;;;;49.00;30.60;;;10.80;86.80;;;;;;5026160;28;20039;-71
2021/03/27 01:43:27;;;;;;;52.75;30.58;;;10.80;86.80;;;;;;5048067;28;20037;-71
2021/03/27 01:46:05;;;;;;;48.97;30.33;;;10.70;86.80;;;;;;5035905;28;20068;-74
2021/03/27 01:48:45;;;;;;;49.13;29.92;;;10.70;86.90;;;;;;5014187;28;20037;-74
2021/03/27 01:51:48;;;;;;;49.25;29.08;;;10.70;86.90;;;;;;5031323;28;20025;-73
2021/03/27 01:54:20;;;;;;;45.67;28.45;;;10.70;86.90;;;;;;5017794;28;20044;-72
2021/03/27 01:57:13;;;;;;;49.05;29.30;;;10.70;86.90;;;;;;5035620;28;20027;-71
2021/03/27 01:59:47;;;;;;;47.63;28.38;;;10.70;87.00;;;;;;5012239;28;20525;-72
2021/03/27 02:02:20;;;;;;;46.60;28.23;;;10.60;87.00;;;;;;5026071;28;20030;-72
2021/03/27 02:05:06;;;;;;;45.83;28.73;;;10.60;87.10;;;;;;5030917;28;20106;-72
2021/03/27 02:07:48;;;;;;;44.10;27.10;;;10.60;87.00;;;;;;5034697;28;20203;-72
2021/03/27 02:10:29;;;;;;;45.88;27.25;;;10.60;87.10;;;;;;5031636;28;20029;-71
2021/03/27 02:13:04;;;;;;;43.40;26.90;;;10.60;87.00;;;;;;5036569;28;20075;-72
2021/03/27 02:15:47;;;;;;;43.70;27.30;;;10.60;87.00;;;;;;5031213;28;20026;-72
2021/03/27 02:18:42;;;;;;;44.13;25.92;;;10.60;87.30;;;;;;5037423;28;20033;-72
2021/03/27 02:21:35;;;;;;;42.00;27.17;;;10.50;86.90;;;;;;5030180;28;20038;-72
2021/03/27 02:24:34;;;;;;;42.40;26.00;;;10.50;86.90;;;;;;5015400;28;20312;-72
2021/03/27 02:27:00;;;;;;;39.88;25.25;;;10.50;87.00;;;;;;5035623;28;20492;-71
2021/03/27 02:30:04;;;;;;;40.05;25.27;;;10.50;87.10;;;;;;5031636;28;20029;-71
2021/03/27 02:32:53;;;;;;;43.05;25.83;;;10.50;87.10;;;;;;5035843;28;20041;-72
2021/03/27 02:35:43;;;;;;;41.72;24.73;;;10.50;87.10;;;;;;5031715;28;20060;-73
2021/03/27 02:38:34;;;;;;;44.80;26.33;;;10.50;87.10;;;;;;5029447;28;20037;-74
2021/03/27 02:41:44;;;;;;;42.03;25.40;;;10.50;87.10;;;;;;5051511;28;20042;-73
2021/03/27 02:44:24;;;;;;;42.55;26.45;;;10.50;87.10;;;;;;4986744;28;20049;-73
2021/03/27 02:46:54;;;;;;;40.22;25.80;;;10.50;87.00;;;;;;4972826;28;20030;-74
2021/03/27 02:49:31;;;;;;;38.42;24.17;;;10.50;87.10;;;;;;4991106;28;20048;-73
2021/03/27 02:52:07;;;;;;;41.33;24.35;;;10.40;87.20;;;;;;5031859;28;20042;-73
2021/03/27 02:54:47;;;;;;;38.40;23.75;;;10.50;87.30;;;;;;5048511;28;20163;-74
2021/03/27 02:57:28;;;;;;;39.20;24.38;;;10.40;87.30;;;;;;5031794;28;20033;-73
2021/03/27 03:00:02;;;;;;;36.75;23.83;;;10.50;87.30;;;;;;5033368;28;20050;-73
2021/03/27 03:02:57;;;;;;;39.88;24.05;;;10.50;87.40;;;;;;5031517;28;20037;-74
2021/03/27 03:05:32;;;;;;;43.33;24.25;;;10.50;87.30;;;;;;5032146;28;20474;-74
2021/03/27 03:08:24;;;;;;;40.20;25.20;;;10.50;87.30;;;;;;5031266;28;20034;-74
2021/03/27 03:11:00;;;;;;;41.55;24.40;;;10.50;87.30;;;;;;5037438;28;20087;-73
2021/03/27 03:13:36;;;;;;;39.30;24.05;;;10.50;87.20;;;;;;5029606;28;20053;-74
2021/03/27 03:16:13;;;;;;;40.78;22.92;;;10.60;87.00;;;;;;5030802;28;20512;-74
2021/03/27 03:18:45;;;;;;;38.90;23.42;;;10.60;87.00;;;;;;5029936;28;20025;-73
2021/03/27 03:21:29;;;;;;;34.60;22.98;;;10.60;87.00;;;;;;5050839;28;20033;-73
2021/03/27 03:24:14;;;;;;;38.55;22.50;;;10.60;86.90;;;;;;5041835;28;20041;-72
2021/03/27 03:27:03;;;;;;;39.28;23.27;;;10.60;86.80;;;;;;5050804;28;20115;-72
2021/03/27 03:29:47;;;;;;;36.88;23.02;;;10.60;86.80;;;;;;5036874;28;20036;-73
2021/03/27 03:32:42;;;;;;;36.20;23.05;;;10.60;86.70;;;;;;5050839;28;20405;-73
2021/03/27 03:35:26;;;;;;;38.40;21.83;;;10.70;86.80;;;;;;5021053;28;20037;-74
2021/03/27 03:38:08;;;;;;;41.53;23.17;;;10.70;86.80;;;;;;5030003;28;20417;-73
2021/03/27 03:40:50;;;;;;;35.83;22.70;;;10.70;86.70;;;;;;5026640;28;20073;-74
2021/03/27 03:43:44;;;;;;;35.35;23.15;;;10.70;86.60;;;;;;5050230;28;20111;-73
2021/03/27 03:46:51;;;;;;;37.75;23.38;;;10.70;86.50;;;;;;4999075;28;20038;-73
2021/03/27 03:49:44;;;;;;;39.10;23.80;;;10.70;86.40;;;;;;5008750;28;20439;-73
2021/03/27 03:52:27;;;;;;;40.25;24.60;;;10.70;86.30;;;;;;5054350;28;20037;-73
2021/03/27 03:55:22;;;;;;;35.13;20.80;;;10.70;86.30;;;;;;5049855;28;20025;-73
2021/03/27 03:58:14;;;;;;;35.63;22.70;;;10.70;86.30;;;;;;5054422;28;20045;-74
2021/03/27 04:01:07;;;;;;;37.90;23.17;;;10.80;86.80;;;;;;5048568;28;20037;-73
2021/03/27 04:03:54;;;;;;;35.80;23.08;;;10.80;86.20;;;;;;5032930;28;20044;-73
2021/03/27 04:06:24;;;;;;;33.97;22.70;;;10.80;86.20;;;;;;5034342;28;20462;-71
2021/03/27 04:08:59;;;;;;;34.78;22.63;;;10.80;86.10;;;;;;5034779;28;20030;-73
2021/03/27 04:11:46;;;;;;;34.20;21.50;;;10.80;86.00;;;;;;5043379;28;20022;-73
2021/03/27 04:14:36;;;;;;;40.60;25.25;;;10.80;85.80;;;;;;5037684;28;20037;-72
2021/03/27 04:17:12;;;;;;;35.33;22.38;;;10.80;85.80;;;;;;5038166;28;20451;-74
2021/03/27 04:19:50;;;;;;;30.80;20.52;;;10.90;85.90;;;;;;5034050;28;20040;-75
2021/03/27 04:22:32;;;;;;;41.90;22.88;;;10.90;85.90;;;;;;5053807;28;20025;-75
2021/03/27 04:25:15;;;;;;;33.60;21.80;;;10.90;85.80;;;;;;5044643;28;20045;-75
2021/03/27 04:27:55;;;;;;;32.35;20.92;;;10.90;85.80;;;;;;5053961;28;20025;-74
2021/03/27 04:30:52;;;;;;;37.67;21.52;;;10.90;85.70;;;;;;5047124;28;20064;-74
2021/03/27 04:33:46;;;;;;;33.55;20.13;;;10.90;85.60;;;;;;5035104;28;20048;-74
2021/03/27 04:36:35;;;;;;;36.40;21.60;;;10.90;85.50;;;;;;5014402;28;20030;-75
2021/03/27 04:39:11;;;;;;;35.22;21.42;;;11.00;85.40;;;;;;5015667;28;20044;-74
2021/03/27 04:41:55;;;;;;;35.20;21.05;;;11.00;85.30;;;;;;5033070;28;20021;-75
2021/03/27 04:44:40;;;;;;;32.33;20.92;;;11.00;85.10;;;;;;5038610;28;20080;-73
2021/03/27 04:47:24;;;;;;;30.88;19.50;;;11.10;85.00;;;;;;5045442;28;20037;-73
2021/03/27 04:50:11;;;;;;;32.58;20.35;;;11.10;85.00;;;;;;5042472;28;20041;-73
2021/03/27 04:52:57;;;;;;;30.65;19.23;;;11.10;84.80;;;;;;5040486;28;20045;-73
2021/03/27 04:55:41;;;;;;;35.55;20.58;;;11.10;84.50;;;;;;5047314;28;20032;-73
2021/03/27 04:58:21;;;;;;;33.67;20.77;;;11.10;84.50;;;;;;5034377;28;20034;-73
2021/03/27 05:01:05;;;;;;;31.98;20.15;;;11.10;84.40;;;;;;5032567;28;20049;-73
2021/03/27 05:03:50;;;;;;;34.28;20.48;;;11.00;84.30;;;;;;5022547;28;20124;-70
2021/03/27 05:06:37;;;;;;;32.92;20.08;;;11.00;84.30;;;;;;5026230;28;20025;-69
2021/03/27 05:09:11;;;;;;;32.00;20.02;;;11.00;84.50;;;;;;5035836;28;20041;-69
2021/03/27 05:11:41;;;;;;;31.57;19.93;;;11.00;84.50;;;;;;5036841;28;20512;-70
2021/03/27 05:14:22;;;;;;;32.85;19.00;;;11.00;84.50;;;;;;5040285;28;20083;-70
2021/03/27 05:17:12;;;;;;;32.00;18.98;;;11.00;84.50;;;;;;5043922;28;20033;-70
2021/03/27 05:19:44;;;;;;;27.10;17.85;;;11.00;84.50;;;;;;5030886;28;20037;-70
2021/03/27 05:22:31;;;;;;;29.20;18.63;;;11.00;84.60;;;;;;5041521;28;20033;-70
2021/03/27 05:25:10;;;;;;;28.75;17.52;;;11.00;84.60;;;;;;5036864;28;20037;-70
2021/03/27 05:27:51;;;;;;;29.13;18.40;;;11.00;84.60;;;;;;5031255;28;20466;-70
2021/03/27 05:30:22;;;;;;;28.00;17.67;;;11.00;84.50;;;;;;5034397;28;20045;-70
2021/03/27 05:33:15;;;;;;;25.73;16.95;;;11.10;84.50;;;;;;5030304;28;20036;-70
2021/03/27 05:35:45;;;;;;;27.77;17.42;;;11.10;84.50;;;;;;5037842;28;20096;-70
2021/03/27 05:38:17;;;;;;;27.13;16.42;;;11.20;84.60;;;;;;5025040;28;20549;-71
2021/03/27 05:41:18;;;;;;;28.55;17.42;;;11.20;84.30;;;;;;5033931;28;20052;-71
2021/03/27 05:43:50;;;;;;;27.73;17.80;;;11.30;84.30;;;;;;5032980;28;20049;-70
2021/03/27 05:46:46;;;;;;;24.23;16.02;;;11.30;84.10;;;;;;5032122;28;20037;-70
2021/03/27 05:49:21;;;;;;;26.50;15.93;;;11.40;84.10;;;;;;5035636;28;20123;-71
2021/03/27 05:52:19;;;;;;;23.65;14.80;;;11.40;83.90;;;;;;5012621;28;20049;-70
2021/03/27 05:55:02;;;;;;;25.38;16.73;;;11.50;83.70;;;;;;5036362;28;20350;-70
2021/03/27 05:57:52;;;;;;;26.55;16.98;;;11.60;83.70;;;;;;5032167;28;20494;-69
2021/03/27 06:00:37;;;;;;;23.98;15.13;;;11.60;83.30;;;;;;5044167;28;20057;-73
2021/03/27 06:03:31;;;;;;;27.60;15.07;;;11.70;83.30;;;;;;5043175;28;20521;-69
2021/03/27 06:06:17;;;;;;;27.33;16.52;;;11.70;83.10;;;;;;5031933;28;20033;-69
2021/03/27 06:09:04;;;;;;;24.85;15.77;;;11.80;82.80;;;;;;5031679;28;20393;-69
2021/03/27 06:11:53;;;;;;;24.73;16.20;;;11.80;82.80;;;;;;5051929;28;20029;-70
2021/03/27 06:14:48;;;;;;;24.15;16.13;;;11.90;82.50;;;;;;5031216;28;20382;-70
2021/03/27 06:18:03;;;;;;;22.23;14.85;;;11.90;82.40;;;;;;5031590;28;20033;-70
2021/03/27 06:21:02;;;;;;;25.40;14.82;;;12.00;82.80;;;;;;5028077;28;20076;-71
2021/03/27 06:23:54;;;;;;;21.65;13.15;;;12.00;82.20;;;;;;5029927;28;20281;-73
2021/03/27 06:26:58;;;;;;;25.95;15.13;;;12.10;82.00;;;;;;5031751;28;20386;-77
2021/03/27 06:29:42;;;;;;;25.67;15.48;;;12.10;81.70;;;;;;4965187;28;20139;-75
2021/03/27 06:32:52;;;;;;;25.85;15.07;;;12.10;81.50;;;;;;5021669;28;20479;-74
2021/03/27 06:35:44;;;;;;;25.27;15.43;;;12.20;81.40;;;;;;5038651;28;20040;-73
2021/03/27 06:38:35;;;;;;;24.05;15.00;;;12.10;81.20;;;;;;5001229;28;20564;-74
2021/03/27 06:41:16;;;;;;;23.25;15.02;;;12.20;81.20;;;;;;5031652;28;20078;-76
2021/03/27 06:44:17;;;;;;;22.75;14.50;;;12.20;81.00;;;;;;5031183;28;20501;-75
2021/03/27 06:47:04;;;;;;;23.65;13.77;;;12.20;81.00;;;;;;5048171;28;20474;-75
2021/03/27 06:49:48;;;;;;;22.83;13.95;;;12.30;81.00;;;;;;5035019;28;20548;-74
2021/03/27 06:52:25;;;;;;;23.05;14.32;;;12.30;80.70;;;;;;5031239;28;20033;-73
2021/03/27 06:55:23;;;;;;;21.23;13.43;;;12.40;80.60;;;;;;5035178;28;20409;-72
2021/03/27 06:58:31;;;;;;;23.83;13.82;;;12.50;80.10;;;;;;5031310;28;20541;-71
2021/03/27 07:01:08;;;;;;;21.17;12.57;;;12.60;80.10;;;;;;5036663;28;20048;-76
2021/03/27 07:04:11;;;;;;;23.50;13.75;;;12.60;79.60;;;;;;5028888;28;20037;-73
2021/03/27 07:06:40;;;;;;;20.52;13.20;;;12.70;79.70;;;;;;5039362;28;20056;-73
2021/03/27 07:09:43;;;;;;;23.17;13.20;;;12.80;79.50;;;;;;5047659;28;20029;-69
2021/03/27 07:12:45;;;;;;;21.67;12.77;;;12.90;79.40;;;;;;5031007;28;20037;-71
2021/03/27 07:15:42;;;;;;;18.67;12.70;;;12.90;79.10;;;;;;5038470;28;20048;-71
2021/03/27 07:18:17;;;;;;;18.42;11.85;;;13.00;79.00;;;;;;5035075;28;20025;-71
2021/03/27 07:21:03;;;;;;;;;;;13.10;78.80;;;;;;5037589;28;20064;-70
2021/03/27 07:23:59;;;;;;;22.08;12.23;;;13.10;78.60;;;;;;5015936;28;19920;-69
2021/03/27 07:26:55;;;;;;;22.30;13.48;;;13.00;79.40;;;;;;5032766;28;20029;-69
2021/03/27 07:29:55;;;;;;;21.90;13.70;;;13.00;80.70;;;;;;5040190;28;20037;-72
2021/03/27 07:32:32;;;;;;;16.98;12.23;;;13.00;81.60;;;;;;5015041;28;20033;-73
2021/03/27 07:35:35;;;;;;;18.83;11.90;;;13.00;82.90;;;;;;5030316;28;20037;-69
2021/03/27 07:38:35;;;;;;;19.83;12.45;;;12.90;83.80;;;;;;5028706;28;20080;-72
2021/03/27 07:41:40;;;;;;;16.25;10.95;;;12.90;84.50;;;;;;5034420;28;20026;-71
2021/03/27 07:44:33;;;;;;;15.45;10.82;;;12.80;85.90;;;;;;5016877;28;20042;-72
2021/03/27 07:47:17;;;;;;;17.70;11.05;;;12.80;86.70;;;;;;5050769;28;20491;-72
2021/03/27 07:50:16;;;;;;;14.68;9.63;;;12.70;87.70;;;;;;5038395;28;20029;-71
2021/03/27 07:52:55;;;;;;;13.95;9.43;;;12.70;88.60;;;;;;5034438;28;20049;-71
2021/03/27 07:55:35;;;;;;;16.70;9.88;;;12.70;88.80;;;;;;5030296;28;20090;-71
2021/03/27 07:58:26;;;;;;;19.48;10.57;;;12.70;89.50;;;;;;5049656;28;20035;-72
2021/03/27 08:01:21;;;;;;;15.13;9.98;;;12.70;90.00;;;;;;5052736;28;20127;-71
2021/03/27 08:04:20;;;;;;;14.00;8.88;;;12.60;90.70;;;;;;5034579;28;20045;-72
2021/03/27 08:06:51;;;;;;;13.32;9.90;;;12.50;90.70;;;;;;5043068;28;20029;-72
2021/03/27 08:09:39;;;;;;;14.00;9.13;;;12.50;90.90;;;;;;5034783;28;20032;-71
2021/03/27 08:12:51;;;;;;;15.55;9.98;;;12.50;91.30;;;;;;5033943;28;20026;-72
2021/03/27 08:16:08;;;;;;;17.30;9.45;;;12.40;91.60;;;;;;5043503;28;20093;-72
2021/03/27 08:18:58;;;;;;;7.38;4.75;;;12.30;91.50;;;;;;5032481;28;20057;-73
2021/03/27 08:22:08;;;;;;;6.55;3.95;;;12.20;90.60;;;;;;5053882;28;20033;-71
2021/03/27 08:24:50;;;;;;;5.60;2.83;;;12.00;90.60;;;;;;5040813;28;20367;-72
2021/03/27 08:27:32;;;;;;;4.13;2.33;;;12.00;90.40;;;;;;5050953;28;20029;-71
2021/03/27 08:30:35;;;;;;;3.33;1.80;;;11.90;90.00;;;;;;5038905;28;20385;-72
2021/03/27 08:33:36;;;;;;;5.43;1.88;;;11.70;89.30;;;;;;5042450;28;20026;-72
2021/03/27 08:36:23;;;;;;;4.43;1.38;;;11.50;88.40;;;;;;5033730;28;20044;-71
2021/03/27 08:39:36;;;;;;;2.97;1.25;;;11.40;88.60;;;;;;5034503;28;20026;-72
2021/03/27 08:42:23;;;;;;;2.38;1.02;;;11.20;89.10;;;;;;5033839;28;20384;-71
2021/03/27 08:45:16;;;;;;;2.80;1.40;;;11.10;89.00;;;;;;5026280;28;20041;-70
2021/03/27 08:48:13;;;;;;;5.32;1.40;;;11.00;89.40;;;;;;5031387;28;20025;-70
2021/03/27 08:51:06;;;;;;;1.60;1.05;;;11.00;90.00;;;;;;5005136;28;20038;-71
2021/03/27 08:53:50;;;;;;;4.63;1.70;;;10.90;90.20;;;;;;5019987;28;20049;-69
2021/03/27 08:56:19;;;;;;;2.35;1.30;;;10.80;90.60;;;;;;5025563;28;20041;-70
2021/03/27 08:59:11;;;;;;;3.80;1.65;;;10.60;90.60;;;;;;5031706;28;20068;-69
2021/03/27 09:02:00;;;;;;;2.78;1.35;;;10.50;90.90;;;;;;5003384;28;20108;-69
2021/03/27 09:04:49;;;;;;;2.95;1.48;;;10.30;90.90;;;;;;5032742;28;20037;-69
2021/03/27 09:07:46;;;;;;;3.08;1.75;;;10.30;91.10;;;;;;5030125;28;20041;-69
2021/03/27 09:10:35;;;;;;;3.30;1.40;;;10.20;91.10;;;;;;5044197;28;20036;-69
2021/03/27 09:13:27;;;;;;;3.38;2.00;;;10.20;91.00;;;;;;5032749;28;20037;-70
2021/03/27 09:16:38;;;;;;;3.55;1.90;;;10.10;91.30;;;;;;5032652;28;20029;-70
2021/03/27 09:19:16;;;;;;;2.55;1.50;;;10.10;91.00;;;;;;5011021;28;20032;-70
2021/03/27 09:21:58;;;;;;;3.25;1.70;;;10.00;91.00;;;;;;5025578;28;20478;-71
2021/03/27 09:24:34;;;;;;;5.03;2.30;;;10.00;91.20;;;;;;5037739;28;20044;-70
2021/03/27 09:27:27;;;;;;;2.88;1.75;;;10.00;91.30;;;;;;5037813;28;20497;-70
2021/03/27 09:30:16;;;;;;;3.38;2.10;;;10.00;91.40;;;;;;5025017;28;20028;-68
2021/03/27 09:33:09;;;;;;;3.17;2.05;;;10.00;91.40;;;;;;5031214;28;20052;-69
2021/03/27 09:35:56;;;;;;;3.80;2.30;;;10.10;91.60;;;;;;5016621;28;20059;-69
2021/03/27 09:38:59;;;;;;;2.83;1.67;;;10.10;91.70;;;;;;5038089;28;20035;-71
2021/03/27 09:41:44;;;;;;;2.97;1.58;;;10.10;91.60;;;;;;5015849;28;20033;-69
2021/03/27 09:44:39;;;;;;;3.38;1.90;;;10.20;91.70;;;;;;5034054;28;20049;-69
2021/03/27 09:47:48;;;;;;;3.90;1.80;;;10.20;91.60;;;;;;5031251;28;20034;-69
2021/03/27 09:50:32;;;;;;;2.42;1.45;;;10.30;91.60;;;;;;5030539;28;20029;-69
2021/03/27 09:53:21;;;;;;;2.22;1.35;;;10.40;91.70;;;;;;5013996;28;20029;-69
2021/03/27 09:56:01;;;;;;;4.38;1.92;;;10.50;91.80;;;;;;5031248;28;20076;-69
2021/03/27 09:58:57;;;;;;;3.47;1.88;;;10.70;92.00;;;;;;5024746;28;20034;-71
2021/03/27 10:01:47;;;;;;;3.03;2.00;;;10.80;91.50;;;;;;5011397;28;20040;-70
2021/03/27 10:04:54;;;;;;;2.50;1.50;;;10.90;91.40;;;;;;5041852;28;20044;-71
2021/03/27 10:07:56;;;;;;;2.92;1.70;;;10.90;91.10;;;;;;5043237;28;20032;-71
2021/03/27 10:10:37;;;;;;;3.83;2.45;;;10.90;90.90;;;;;;5045898;28;20032;-71
2021/03/27 10:13:03;;;;;;;2.78;1.80;;;11.00;90.80;;;;;;5037718;28;20053;-69
2021/03/27 10:15:42;;;;;;;2.67;2.00;;;10.90;90.60;;;;;;5046513;28;20497;-70
2021/03/27 10:18:35;;;;;;;3.38;2.22;;;10.90;90.60;;;;;;5033188;28;20033;-67
2021/03/27 10:21:18;;;;;;;4.38;2.45;;;10.90;90.60;;;;;;5025820;28;20107;-69
2021/03/27 10:24:43;;;;;;;3.55;2.03;;;10.90;90.60;;;;;;5024579;28;20040;-70
2021/03/27 10:27:45;;;;;;;3.60;2.40;;;11.10;90.60;;;;;;4949544;28;20101;-68
2021/03/27 10:30:34;;;;;;;5.30;2.53;;;11.10;90.40;;;;;;4966600;28;20050;-69
2021/03/27 10:33:21;;;;;;;3.78;2.40;;;11.10;90.30;;;;;;5024783;28;20040;-69
2021/03/27 10:35:47;;;;;;;4.15;2.95;;;11.10;90.20;;;;;;5029964;28;20123;-69
2021/03/27 10:38:42;;;;;;;4.38;2.75;;;11.10;90.10;;;;;;5030157;28;20061;-70
2021/03/27 10:41:29;;;;;;;5.63;3.42;;;11.20;90.00;;;;;;5021707;28;20030;-70
2021/03/27 10:44:16;;;;;;;4.38;3.00;;;11.30;90.10;;;;;;5031891;28;20041;-70
2021/03/27 10:46:48;;;;;;;6.82;3.70;;;11.40;89.60;;;;;;5010773;28;20117;-69
2021/03/27 10:49:20;;;;;;;4.95;3.38;;;11.50;89.60;;;;;;5030991;28;20084;-69
2021/03/27 10:52:22;;;;;;;4.72;3.15;;;11.50;89.20;;;;;;5042711;28;20017;-69
2021/03/27 10:55:11;;;;;;;4.78;3.22;;;11.70;88.50;;;;;;5046730;28;20044;-69
2021/03/27 10:57:45;;;;;;;5.55;2.97;;;11.80;87.80;;;;;;5034927;28;20522;-69
2021/03/27 11:00:39;;;;;;;6.88;2.85;;;11.90;86.00;;;;;;5028619;28;20096;-69
2021/03/27 11:03:30;;;;;;;5.47;2.40;;;11.90;85.00;;;;;;5032852;28;20065;-68
2021/03/27 11:06:33;;;;;;;4.72;2.80;;;11.70;84.10;;;;;;5039594;28;20033;-68
2021/03/27 11:09:20;;;;;;;4.75;2.85;;;11.60;85.10;;;;;;5032647;28;20391;-68
2021/03/27 11:12:07;;;;;;;3.97;2.30;;;11.50;85.80;;;;;;5032412;28;20114;-68
2021/03/27 11:14:58;;;;;;;4.20;2.83;;;11.40;85.90;;;;;;5039364;28;20025;-69
2021/03/27 11:17:53;;;;;;;5.13;2.40;;;11.40;86.90;;;;;;5014516;28;20064;-70
2021/03/27 11:20:56;;;;;;;4.93;2.40;;;11.40;86.90;;;;;;5040257;28;20025;-70
2021/03/27 11:23:50;;;;;;;5.40;3.00;;;11.50;85.90;;;;;;5029906;28;20132;-70
2021/03/27 11:26:29;;;;;;;6.28;2.80;;;11.50;85.40;;;;;;5029630;28;20033;-69
2021/03/27 11:29:28;;;;;;;5.05;2.70;;;11.50;85.90;;;;;;5033253;28;20032;-69
2021/03/27 11:32:08;;;;;;;8.43;3.20;;;11.50;85.30;;;;;;5030216;28;20026;-70
2021/03/27 11:35:05;;;;;;;7.65;3.00;;;11.60;83.60;;;;;;5037967;28;20397;-69
2021/03/27 11:37:52;;;;;;;4.85;2.92;;;11.60;84.40;;;;;;5022340;28;20026;-69
2021/03/27 11:40:30;;;;;;;7.15;2.90;;;11.60;83.90;;;;;;5031395;28;20220;-70
2021/03/27 11:43:23;;;;;;;7.40;3.42;;;11.70;82.50;;;;;;5024704;28;20078;-70
2021/03/27 11:46:05;;;;;;;4.85;2.97;;;11.70;81.10;;;;;;5037762;28;20099;-70
2021/03/27 11:48:46;;;;;;;5.60;2.53;;;11.70;80.70;;;;;;5023538;28;20021;-69
2021/03/27 11:51:28;;;;;;;7.00;3.45;;;11.80;78.40;;;;;;5036766;28;20024;-69
2021/03/27 11:53:54;;;;;;;7.90;3.45;;;11.80;78.90;;;;;;5031914;28;20025;-69
2021/03/27 11:56:44;;;;;;;5.25;3.22;;;11.80;77.70;;;;;;5050826;28;20539;-69
2021/03/27 12:02:40;;;;;;;7.85;3.55;;;12.00;77.50;;;;;;5034361;28;20688;-69
2021/03/27 12:05:29;;;;;;;7.38;3.03;;;12.10;76.40;;;;;;5032847;28;20041;-70
2021/03/27 12:08:17;;;;;;;5.72;3.10;;;12.10;71.90;;;;;;5030922;28;21768;-69
2021/03/27 12:11:10;;;;;;;5.65;2.95;;;12.10;72.60;;;;;;5000032;28;20030;-69
2021/03/27 12:13:51;;;;;;;5.63;3.30;;;12.20;71.50;;;;;;5032889;28;20563;-69
2021/03/27 12:16:32;;;;;;;5.50;2.70;;;12.30;71.50;;;;;;5050440;28;20030;-70
2021/03/27 12:19:16;;;;;;;5.75;3.05;;;12.50;70.20;;;;;;5023844;28;20363;-69
2021/03/27 12:21:49;;;;;;;6.50;3.20;;;12.60;69.50;;;;;;5035099;28;20025;-72
2021/03/27 12:24:31;;;;;;;5.60;3.10;;;12.70;69.30;;;;;;5032390;28;20448;-75
2021/03/27 12:27:04;;;;;;;8.70;3.47;;;12.80;67.50;;;;;;5033550;28;20033;-77
2021/03/27 12:29:46;;;;;;;5.30;3.35;;;12.90;67.20;;;;;;5039840;28;20378;-75
2021/03/27 12:32:39;;;;;;;4.60;3.05;;;13.00;66.50;;;;;;5035298;28;20493;-75
2021/03/27 12:35:12;;;;;;;7.90;2.80;;;13.10;65.80;;;;;;5030275;28;20490;-75
2021/03/27 12:38:09;;;;;;;4.88;2.75;;;13.20;64.30;;;;;;5018089;28;20048;-75
2021/03/27 12:40:54;;;;;;;5.57;2.65;;;13.30;63.50;;;;;;4995616;28;20076;-76
2021/03/27 12:43:24;;;;;;;3.90;2.45;;;13.30;61.00;;;;;;5029998;28;20064;-77
2021/03/27 12:46:02;;;;;;;3.78;2.22;;;13.50;61.50;;;;;;5041549;28;20485;-75
2021/03/27 12:48:48;;;;;;;5.00;2.67;;;13.60;60.40;;;;;;5020963;28;20048;-76
2021/03/27 12:51:26;;;;;;;5.43;2.22;;;13.70;59.20;;;;;;5033789;28;20764;-75
2021/03/27 12:54:16;;;;;;;4.95;3.08;;;13.90;59.10;;;;;;5034319;28;20117;-74
2021/03/27 12:57:08;;;;;;;5.63;2.47;;;14.00;57.70;;;;;;5038243;28;20532;-74
2021/03/27 13:00:04;;;;;;;3.63;2.20;;;14.00;57.70;;;;;;5029083;28;20052;-75
2021/03/27 13:03:17;;;;;;;2.97;1.77;;;14.00;55.90;;;;;;5031697;28;20025;-75
2021/03/27 13:06:23;;;;;;;3.20;2.35;;;13.90;54.70;;;;;;4977106;28;20159;-71
2021/03/27 13:09:11;;;;;;;3.15;1.88;;;13.60;60.70;;;;;;5019530;28;20080;-78
2021/03/27 13:11:54;;;;;;;3.65;2.15;;;13.10;63.70;;;;;;5036839;28;20041;-73
2021/03/27 13:14:54;;;;;;;3.83;1.80;;;12.80;66.90;;;;;;5031836;28;20473;-74
2021/03/27 13:17:54;;;;;;;5.60;1.92;;;12.40;67.90;;;;;;5033557;28;20028;-73
2021/03/27 13:20:31;;;;;;;3.50;1.50;;;12.20;68.90;;;;;;5022954;28;20056;-76
2021/03/27 13:23:09;;;;;;;3.83;1.80;;;12.00;68.90;;;;;;5033447;28;20029;-77
2021/03/27 13:25:48;;;;;;;4.55;1.80;;;11.80;69.50;;;;;;5033179;28;20034;-74
2021/03/27 13:28:40;;;;;;;2.67;1.73;;;11.70;69.90;;;;;;5033233;28;20390;-74
2021/03/27 13:31:16;;;;;;;12.55;1.88;;;11.60;71.30;;;;;;5029208;28;20034;-75
2021/03/27 13:33:59;;;;;;;3.78;1.80;;;11.60;72.30;;;;;;5033033;28;20120;-79
2021/03/27 13:36:27;;;;;;;5.35;3.10;;;11.70;72.90;;;;;;5033160;28;20040;-73
2021/03/27 13:39:01;;;;;;;4.57;1.80;;;11.80;74.00;;;;;;5033041;28;20018;-76
2021/03/27 13:41:32;;;;;;;3.22;1.80;;;11.80;73.90;;;;;;5045088;28;20049;-70
2021/03/27 13:44:07;;;;;;;3.00;1.83;;;11.80;73.80;;;;;;5022202;28;20037;-75
2021/03/27 13:46:51;;;;;;;3.25;1.73;;;11.80;73.90;;;;;;5021938;28;20076;-77
2021/03/27 13:49:23;;;;;;;2.75;1.70;;;11.70;74.00;;;;;;5029622;28;20046;-79
2021/03/27 13:51:56;;;;;;;3.47;1.90;;;11.70;74.60;;;;;;5032158;28;20036;-79
2021/03/27 13:54:47;;;;;;;2.45;1.48;;;11.80;74.70;;;;;;5029748;28;20034;-79
2021/03/27 13:57:28;;;;;;;2.92;2.13;;;11.80;74.50;;;;;;5030932;28;20096;-80
2021/03/27 14:00:18;;;;;;;3.25;1.60;;;11.80;74.40;;;;;;5040905;28;20049;-78
2021/03/27 14:03:19;;;;;;;1.90;1.40;;;11.70;73.40;;;;;;5032724;28;20029;-79
2021/03/27 14:06:14;;;;;;;2.65;1.20;;;11.60;72.90;;;;;;4998859;28;20044;-79
2021/03/27 14:08:47;;;;;;;1.75;1.13;;;11.50;72.70;;;;;;5025787;28;20072;-79
2021/03/27 14:11:23;;;;;;;3.00;1.25;;;11.50;72.70;;;;;;5014621;28;20048;-79
2021/03/27 14:13:59;;;;;;;2.53;1.30;;;11.40;73.00;;;;;;5032358;28;20033;-79